sensor_id;sensor_type;location;lat;lon;timestamp;pressure;altitude;pressure_sealevel;temperature;humidity
78144;BME280;67394;52.522;13.622;2023-03-19T00:02:17;100776.34;;;7.01;76.00
78144;BME280;67394;52.522;13.622;2023-03-19T00:04:44;100778.88;;;7.01;76.53
78144;BME280;67394;52.522;13.622;2023-03-19T00:07:11;100779.75;;;7.02;75.97
78144;BME280;67394;52.522;13.622;2023-03-19T00:09:38;100772.94;;;7.01;75.56
78144;BME280;67394;52.522;13.622;2023-03-19T00:12:05;100771.28;;;7.04;75.26
78144;BME280;67394;52.522;13.622;2023-03-19T00:14:31;100771.22;;;6.99;75.20
78144;BME280;67394;52.522;13.622;2023-03-19T00:16:58;100775.44;;;6.96;75.24
78144;BME280;67394;52.522;13.622;2023-03-19T00:19:24;100779.66;;;6.95;75.44
78144;BME280;67394;52.522;13.622;2023-03-19T00:21:50;100770.28;;;6.93;75.55
78144;BME280;67394;52.522;13.622;2023-03-19T00:24:17;100777.91;;;6.93;75.48
78144;BME280;67394;52.522;13.622;2023-03-19T00:26:43;100769.38;;;6.91;75.76
78144;BME280;67394;52.522;13.622;2023-03-19T00:29:09;100768.50;;;6.89;75.98
78144;BME280;67394;52.522;13.622;2023-03-19T00:31:36;100775.34;;;6.91;75.77
78144;BME280;67394;52.522;13.622;2023-03-19T00:34:02;100777.88;;;6.91;75.57
78144;BME280;67394;52.522;13.622;2023-03-19T00:36:28;100768.50;;;6.87;75.69
78144;BME280;67394;52.522;13.622;2023-03-19T00:38:55;100771.84;;;6.85;75.58
78144;BME280;67394;52.522;13.622;2023-03-19T00:41:21;100770.19;;;6.87;75.58
78144;BME280;67394;52.522;13.622;2023-03-19T00:43:57;100764.22;;;6.86;75.61
78144;BME280;67394;52.522;13.622;2023-03-19T00:46:24;100759.91;;;6.82;75.33
78144;BME280;67394;52.522;13.622;2023-03-19T00:48:50;100753.06;;;6.80;75.94
78144;BME280;67394;52.522;13.622;2023-03-19T00:51:17;100753.84;;;6.74;75.96
78144;BME280;67394;52.522;13.622;2023-03-19T00:53:43;100763.09;;;6.71;76.07
78144;BME280;67394;52.522;13.622;2023-03-19T00:56:11;100769.84;;;6.69;75.53
78144;BME280;67394;52.522;13.622;2023-03-19T00:58:38;100764.75;;;6.69;75.72
78144;BME280;67394;52.522;13.622;2023-03-19T01:01:05;100772.31;;;6.63;75.87
78144;BME280;67394;52.522;13.622;2023-03-19T01:03:31;100779.00;;;6.57;76.16
78144;BME280;67394;52.522;13.622;2023-03-19T01:05:58;100774.75;;;6.56;76.20
78144;BME280;67394;52.522;13.622;2023-03-19T01:08:24;100777.22;;;6.52;76.26
78144;BME280;67394;52.522;13.622;2023-03-19T01:10:51;100772.97;;;6.52;76.16
78144;BME280;67394;52.522;13.622;2023-03-19T01:13:18;100779.75;;;6.52;76.12
78144;BME280;67394;52.522;13.622;2023-03-19T01:15:44;100788.19;;;6.49;76.24
78144;BME280;67394;52.522;13.622;2023-03-19T01:18:10;100785.59;;;6.45;76.19
78144;BME280;67394;52.522;13.622;2023-03-19T01:20:39;100788.84;;;6.39;76.50
78144;BME280;67394;52.522;13.622;2023-03-19T01:23:06;100782.03;;;6.38;75.96
78144;BME280;67394;52.522;13.622;2023-03-19T01:25:33;100784.59;;;6.38;76.01
78144;BME280;67394;52.522;13.622;2023-03-19T01:27:59;100787.09;;;6.37;76.01
78144;BME280;67394;52.522;13.622;2023-03-19T01:30:26;100782.84;;;6.34;76.15
78144;BME280;67394;52.522;13.622;2023-03-19T01:32:52;100782.78;;;6.31;76.11
78144;BME280;67394;52.522;13.622;2023-03-19T01:35:19;100792.06;;;6.29;76.15
78144;BME280;67394;52.522;13.622;2023-03-19T01:37:45;100786.06;;;6.27;76.19
78144;BME280;67394;52.522;13.622;2023-03-19T01:40:13;100784.31;;;6.23;76.15
78144;BME280;67394;52.522;13.622;2023-03-19T01:42:57;100789.38;;;6.21;76.26
78144;BME280;67394;52.522;13.622;2023-03-19T01:45:38;100785.16;;;6.22;76.49
78144;BME280;67394;52.522;13.622;2023-03-19T01:48:05;100785.19;;;6.23;76.03
78144;BME280;67394;52.522;13.622;2023-03-19T01:50:42;100784.25;;;6.20;76.31
78144;BME280;67394;52.522;13.622;2023-03-19T01:53:11;100787.59;;;6.17;76.47
78144;BME280;67394;52.522;13.622;2023-03-19T01:55:39;100780.78;;;6.16;76.69
78144;BME280;67394;52.522;13.622;2023-03-19T01:58:06;100786.72;;;6.17;76.68
78144;BME280;67394;52.522;13.622;2023-03-19T02:00:36;100787.63;;;6.19;76.60
78144;BME280;67394;52.522;13.622;2023-03-19T02:03:04;100789.25;;;6.14;76.52
78144;BME280;67394;52.522;13.622;2023-03-19T02:05:32;100783.28;;;6.13;76.70
78144;BME280;67394;52.522;13.622;2023-03-19T02:08:02;100783.25;;;6.12;76.91
78144;BME280;67394;52.522;13.622;2023-03-19T02:10:30;100784.94;;;6.11;76.41
78144;BME280;67394;52.522;13.622;2023-03-19T02:12:57;100784.88;;;6.08;76.57
78144;BME280;67394;52.522;13.622;2023-03-19T02:15:24;100782.28;;;6.07;76.52
78144;BME280;67394;52.522;13.622;2023-03-19T02:17:50;100775.50;;;6.06;76.57
78144;BME280;67394;52.522;13.622;2023-03-19T02:20:29;100774.56;;;6.01;77.14
78144;BME280;67394;52.522;13.622;2023-03-19T02:26:08;100775.31;;;5.97;77.07
78144;BME280;67394;52.522;13.622;2023-03-19T02:28:38;100776.88;;;5.90;77.30
78144;BME280;67394;52.522;13.622;2023-03-19T02:31:06;100783.47;;;5.83;77.30
78144;BME280;67394;52.522;13.622;2023-03-19T02:33:33;100773.22;;;5.79;77.11
78144;BME280;67394;52.522;13.622;2023-03-19T02:36:01;100774.88;;;5.77;77.93
78144;BME280;67394;52.522;13.622;2023-03-19T02:38:29;100776.56;;;5.76;77.48
78144;BME280;67394;52.522;13.622;2023-03-19T02:43:26;100767.31;;;5.80;77.88
78144;BME280;67394;52.522;13.622;2023-03-19T02:45:53;100769.81;;;5.78;78.03
78144;BME280;67394;52.522;13.622;2023-03-19T02:48:19;100767.25;;;5.77;77.88
78144;BME280;67394;52.522;13.622;2023-03-19T02:50:46;100766.53;;;5.84;77.52
78144;BME280;67394;52.522;13.622;2023-03-19T02:53:12;100776.75;;;5.85;77.28
78144;BME280;67394;52.522;13.622;2023-03-19T02:55:38;100779.31;;;5.87;77.26
78144;BME280;67394;52.522;13.622;2023-03-19T02:58:05;100778.56;;;5.90;77.47
78144;BME280;67394;52.522;13.622;2023-03-19T03:00:31;100770.16;;;5.92;77.85
78144;BME280;67394;52.522;13.622;2023-03-19T03:02:58;100775.25;;;5.94;77.81
78144;BME280;67394;52.522;13.622;2023-03-19T03:05:25;100770.22;;;5.97;77.62
78144;BME280;67394;52.522;13.622;2023-03-19T03:07:52;100771.94;;;5.98;77.49
78144;BME280;67394;52.522;13.622;2023-03-19T03:10:18;100766.06;;;6.00;77.44
78144;BME280;67394;52.522;13.622;2023-03-19T03:12:45;100763.47;;;5.99;77.32
78144;BME280;67394;52.522;13.622;2023-03-19T03:15:11;100766.91;;;6.01;77.68
78144;BME280;67394;52.522;13.622;2023-03-19T03:17:38;100770.38;;;6.03;76.81
78144;BME280;67394;52.522;13.622;2023-03-19T03:20:06;100767.00;;;6.04;77.34
78144;BME280;67394;52.522;13.622;2023-03-19T03:22:33;100772.06;;;6.04;77.71
78144;BME280;67394;52.522;13.622;2023-03-19T03:25:00;100781.44;;;6.06;77.21
78144;BME280;67394;52.522;13.622;2023-03-19T03:27:26;100776.41;;;6.09;77.18
78144;BME280;67394;52.522;13.622;2023-03-19T03:29:52;100780.72;;;6.12;77.07
78144;BME280;67394;52.522;13.622;2023-03-19T03:32:19;100783.28;;;6.15;76.94
78144;BME280;67394;52.522;13.622;2023-03-19T03:34:45;100772.28;;;6.16;77.37
78144;BME280;67394;52.522;13.622;2023-03-19T03:37:11;100773.13;;;6.15;77.83
78144;BME280;67394;52.522;13.622;2023-03-19T03:39:38;100773.97;;;6.14;77.44
78144;BME280;67394;52.522;13.622;2023-03-19T03:42:04;100770.56;;;6.13;77.54
78144;BME280;67394;52.522;13.622;2023-03-19T03:44:31;100768.78;;;6.09;76.85
78144;BME280;67394;52.522;13.622;2023-03-19T03:46:57;100778.06;;;6.07;77.19
78144;BME280;67394;52.522;13.622;2023-03-19T03:49:23;100784.00;;;6.08;77.22
78144;BME280;67394;52.522;13.622;2023-03-19T03:51:50;100778.88;;;6.06;77.07
78144;BME280;67394;52.522;13.622;2023-03-19T03:54:16;100783.13;;;6.06;77.18
78144;BME280;67394;52.522;13.622;2023-03-19T03:56:42;100783.94;;;6.05;77.26
78144;BME280;67394;52.522;13.622;2023-03-19T03:59:08;100781.41;;;6.05;76.97
78144;BME280;67394;52.522;13.622;2023-03-19T04:01:35;100787.34;;;6.05;77.38
78144;BME280;67394;52.522;13.622;2023-03-19T04:04:01;100804.28;;;6.05;77.77
78144;BME280;67394;52.522;13.622;2023-03-19T04:06:28;100817.88;;;6.04;77.50
78144;BME280;67394;52.522;13.622;2023-03-19T04:08:54;100808.50;;;6.01;76.84
78144;BME280;67394;52.522;13.622;2023-03-19T04:11:20;100810.97;;;5.98;77.16
78144;BME280;67394;52.522;13.622;2023-03-19T04:13:47;100811.00;;;6.00;77.29
78144;BME280;67394;52.522;13.622;2023-03-19T04:16:13;100820.19;;;5.93;77.36
78144;BME280;67394;52.522;13.622;2023-03-19T04:18:40;100816.69;;;5.88;77.47
78144;BME280;67394;52.522;13.622;2023-03-19T04:21:07;100825.03;;;5.84;77.48
78144;BME280;67394;52.522;13.622;2023-03-19T04:23:33;100826.72;;;5.83;77.86
78144;BME280;67394;52.522;13.622;2023-03-19T04:26:03;100827.53;;;5.81;78.01
78144;BME280;67394;52.522;13.622;2023-03-19T04:28:30;100826.63;;;5.79;77.62
78144;BME280;67394;52.522;13.622;2023-03-19T04:31:00;100828.31;;;5.78;77.54
78144;BME280;67394;52.522;13.622;2023-03-19T04:33:27;100829.22;;;5.80;78.12
78144;BME280;67394;52.522;13.622;2023-03-19T04:35:54;100823.31;;;5.81;77.50
78144;BME280;67394;52.522;13.622;2023-03-19T04:38:21;100841.38;;;5.94;77.35
78144;BME280;67394;52.522;13.622;2023-03-19T04:40:48;100828.41;;;5.83;77.95
78144;BME280;67394;52.522;13.622;2023-03-19T04:43:14;100849.59;;;5.83;77.96
78144;BME280;67394;52.522;13.622;2023-03-19T04:45:40;100849.59;;;5.83;77.48
78144;BME280;67394;52.522;13.622;2023-03-19T04:48:07;100852.09;;;5.80;77.90
78144;BME280;67394;52.522;13.622;2023-03-19T04:50:33;100853.78;;;5.80;77.84
78144;BME280;67394;52.522;13.622;2023-03-19T04:53:00;100841.84;;;5.77;77.85
78144;BME280;67394;52.522;13.622;2023-03-19T04:55:26;100835.03;;;5.76;78.09
78144;BME280;67394;52.522;13.622;2023-03-19T04:57:53;100838.44;;;5.77;78.00
78144;BME280;67394;52.522;13.622;2023-03-19T05:00:19;100835.94;;;5.78;77.79
78144;BME280;67394;52.522;13.622;2023-03-19T05:02:46;100834.22;;;5.77;78.64
78144;BME280;67394;52.522;13.622;2023-03-19T05:05:12;100838.09;;;5.98;77.50
78144;BME280;67394;52.522;13.622;2023-03-19T05:07:39;100836.06;;;5.84;77.93
78144;BME280;67394;52.522;13.622;2023-03-19T05:10:06;100841.16;;;5.84;78.38
78144;BME280;67394;52.522;13.622;2023-03-19T05:12:33;100851.41;;;5.87;78.38
78144;BME280;67394;52.522;13.622;2023-03-19T05:15:00;100851.41;;;5.87;78.59
78144;BME280;67394;52.522;13.622;2023-03-19T05:17:27;100849.63;;;5.85;79.00
78144;BME280;67394;52.522;13.622;2023-03-19T05:19:53;100852.22;;;5.86;78.55
78144;BME280;67394;52.522;13.622;2023-03-19T05:22:19;100852.28;;;5.88;78.56
78144;BME280;67394;52.522;13.622;2023-03-19T05:24:45;100857.41;;;5.90;78.94
78144;BME280;67394;52.522;13.622;2023-03-19T05:27:12;100856.59;;;5.91;78.81
78144;BME280;67394;52.522;13.622;2023-03-19T05:29:38;100847.31;;;5.93;78.89
78144;BME280;67394;52.522;13.622;2023-03-19T05:32:06;100847.72;;;6.12;78.36
78144;BME280;67394;52.522;13.622;2023-03-19T05:34:32;100844.28;;;6.10;78.67
78144;BME280;67394;52.522;13.622;2023-03-19T05:36:59;100841.75;;;6.10;78.59
78144;BME280;67394;52.522;13.622;2023-03-19T05:39:25;100841.75;;;6.10;78.26
78144;BME280;67394;52.522;13.622;2023-03-19T05:41:51;100840.75;;;6.02;78.48
78144;BME280;67394;52.522;13.622;2023-03-19T05:44:18;100844.03;;;5.98;79.26
78144;BME280;67394;52.522;13.622;2023-03-19T05:46:44;100841.38;;;5.92;79.77
78144;BME280;67394;52.522;13.622;2023-03-19T05:49:11;100838.91;;;5.97;79.58
78144;BME280;67394;52.522;13.622;2023-03-19T05:51:37;100836.13;;;5.87;80.11
78144;BME280;67394;52.522;13.622;2023-03-19T05:54:03;100835.47;;;5.93;80.32
78144;BME280;67394;52.522;13.622;2023-03-19T05:56:30;100834.53;;;5.90;80.07
78144;BME280;67394;52.522;13.622;2023-03-19T05:58:56;100837.97;;;5.92;80.30
78144;BME280;67394;52.522;13.622;2023-03-19T06:01:22;100833.75;;;5.92;80.13
78144;BME280;67394;52.522;13.622;2023-03-19T06:03:49;100835.53;;;5.98;79.98
78144;BME280;67394;52.522;13.622;2023-03-19T06:06:15;100828.88;;;6.03;80.18
78144;BME280;67394;52.522;13.622;2023-03-19T06:08:41;100826.34;;;6.04;80.58
78144;BME280;67394;52.522;13.622;2023-03-19T06:11:08;100812.97;;;6.13;80.44
78144;BME280;67394;52.522;13.622;2023-03-19T06:13:34;100811.28;;;6.15;80.40
78144;BME280;67394;52.522;13.622;2023-03-19T06:16:00;100802.81;;;6.16;79.96
78144;BME280;67394;52.522;13.622;2023-03-19T06:18:27;100808.13;;;6.27;80.34
78144;BME280;67394;52.522;13.622;2023-03-19T06:20:53;100811.69;;;6.35;79.18
78144;BME280;67394;52.522;13.622;2023-03-19T06:23:19;100813.72;;;6.52;78.05
78144;BME280;67394;52.522;13.622;2023-03-19T06:25:48;100817.91;;;6.50;79.36
78144;BME280;67394;52.522;13.622;2023-03-19T06:28:15;100823.03;;;6.52;79.38
78144;BME280;67394;52.522;13.622;2023-03-19T06:30:41;100829.94;;;6.57;79.75
78144;BME280;67394;52.522;13.622;2023-03-19T06:33:07;100827.53;;;6.65;79.37
78144;BME280;67394;52.522;13.622;2023-03-19T06:35:34;100831.81;;;6.68;79.28
78144;BME280;67394;52.522;13.622;2023-03-19T06:38:00;100836.13;;;6.72;78.54
78144;BME280;67394;52.522;13.622;2023-03-19T06:40:26;100833.78;;;6.82;78.21
78144;BME280;67394;52.522;13.622;2023-03-19T06:42:53;100832.22;;;6.90;77.68
78144;BME280;67394;52.522;13.622;2023-03-19T06:45:19;100823.03;;;6.98;76.85
78144;BME280;67394;52.522;13.622;2023-03-19T06:47:46;100836.81;;;7.11;76.63
78144;BME280;67394;52.522;13.622;2023-03-19T06:50:13;100840.47;;;7.25;76.62
78144;BME280;67394;52.522;13.622;2023-03-19T06:52:40;100842.34;;;7.37;75.33
78144;BME280;67394;52.522;13.622;2023-03-19T06:55:06;100845.84;;;7.44;76.02
78144;BME280;67394;52.522;13.622;2023-03-19T06:57:33;100852.03;;;7.59;73.23
78144;BME280;67394;52.522;13.622;2023-03-19T07:00:00;100854.63;;;7.61;74.98
78144;BME280;67394;52.522;13.622;2023-03-19T07:02:26;100873.41;;;7.67;75.00
78144;BME280;67394;52.522;13.622;2023-03-19T07:04:53;100863.31;;;7.75;75.00
78144;BME280;67394;52.522;13.622;2023-03-19T07:07:19;100871.94;;;7.83;74.54
78144;BME280;67394;52.522;13.622;2023-03-19T07:09:45;100876.19;;;7.84;74.08
78144;BME280;67394;52.522;13.622;2023-03-19T07:12:12;100879.75;;;7.94;73.27
78144;BME280;67394;52.522;13.622;2023-03-19T07:14:38;100889.09;;;7.95;73.45
78144;BME280;67394;52.522;13.622;2023-03-19T07:17:05;100911.19;;;7.91;73.32
78144;BME280;67394;52.522;13.622;2023-03-19T07:19:34;100935.06;;;7.96;73.59
78144;BME280;67394;52.522;13.622;2023-03-19T07:22:00;100952.28;;;8.09;73.98
78144;BME280;67394;52.522;13.622;2023-03-19T07:24:26;100955.00;;;8.22;72.46
78144;BME280;67394;52.522;13.622;2023-03-19T07:26:53;100961.91;;;8.29;73.18
78144;BME280;67394;52.522;13.622;2023-03-19T07:29:19;100974.69;;;8.29;73.83
78144;BME280;67394;52.522;13.622;2023-03-19T07:31:45;100962.78;;;8.31;73.64
78144;BME280;67394;52.522;13.622;2023-03-19T07:34:12;100964.59;;;8.35;73.01
78144;BME280;67394;52.522;13.622;2023-03-19T07:36:38;100961.16;;;8.33;73.56
78144;BME280;67394;52.522;13.622;2023-03-19T07:39:04;100978.31;;;8.43;73.38
78144;BME280;67394;52.522;13.622;2023-03-19T07:41:31;100980.91;;;8.44;73.63
78144;BME280;67394;52.522;13.622;2023-03-19T07:43:57;100964.75;;;8.46;74.31
78144;BME280;67394;52.522;13.622;2023-03-19T07:46:23;100963.00;;;8.43;74.12
78144;BME280;67394;52.522;13.622;2023-03-19T07:48:50;100957.97;;;8.49;74.80
78144;BME280;67394;52.522;13.622;2023-03-19T07:51:16;100957.16;;;8.53;75.15
78144;BME280;67394;52.522;13.622;2023-03-19T07:53:42;100944.47;;;8.59;75.50
78144;BME280;67394;52.522;13.622;2023-03-19T07:56:09;100937.75;;;8.67;75.40
78144;BME280;67394;52.522;13.622;2023-03-19T07:58:35;100937.88;;;8.79;74.04
78144;BME280;67394;52.522;13.622;2023-03-19T08:01:02;100921.81;;;8.88;73.58
78144;BME280;67394;52.522;13.622;2023-03-19T08:03:28;100923.63;;;9.01;72.82
78144;BME280;67394;52.522;13.622;2023-03-19T08:05:55;100914.44;;;9.17;73.44
78144;BME280;67394;52.522;13.622;2023-03-19T08:08:21;100906.97;;;9.40;72.76
78144;BME280;67394;52.522;13.622;2023-03-19T08:10:47;100907.97;;;9.59;71.82
78144;BME280;67394;52.522;13.622;2023-03-19T08:13:14;100891.91;;;9.85;70.61
78144;BME280;67394;52.522;13.622;2023-03-19T08:15:40;100884.34;;;10.02;71.06
78144;BME280;67394;52.522;13.622;2023-03-19T08:18:06;100881.09;;;10.24;71.57
78144;BME280;67394;52.522;13.622;2023-03-19T08:20:33;100876.06;;;10.46;72.20
78144;BME280;67394;52.522;13.622;2023-03-19T08:22:59;100882.09;;;10.64;72.83
78144;BME280;67394;52.522;13.622;2023-03-19T08:25:26;100882.97;;;10.82;71.91
78144;BME280;67394;52.522;13.622;2023-03-19T08:27:54;100878.75;;;11.08;72.63
78144;BME280;67394;52.522;13.622;2023-03-19T08:30:20;100884.75;;;11.18;70.85
78144;BME280;67394;52.522;13.622;2023-03-19T08:32:49;100891.59;;;11.28;68.85
78144;BME280;67394;52.522;13.622;2023-03-19T08:35:16;100892.44;;;11.34;69.41
78144;BME280;67394;52.522;13.622;2023-03-19T08:37:42;100901.88;;;11.40;69.32
78144;BME280;67394;52.522;13.622;2023-03-19T08:40:09;100910.41;;;11.37;68.39
78144;BME280;67394;52.522;13.622;2023-03-19T08:42:35;100899.28;;;11.46;68.39
78144;BME280;67394;52.522;13.622;2023-03-19T08:45:02;100905.28;;;11.60;67.78
78144;BME280;67394;52.522;13.622;2023-03-19T08:47:28;100916.38;;;11.67;68.28
78144;BME280;67394;52.522;13.622;2023-03-19T08:49:55;100936.06;;;11.66;69.18
78144;BME280;67394;52.522;13.622;2023-03-19T08:52:21;100973.72;;;11.46;69.18
78144;BME280;67394;52.522;13.622;2023-03-19T08:54:48;100999.38;;;11.28;69.75
78144;BME280;67394;52.522;13.622;2023-03-19T08:57:15;101001.06;;;11.11;70.29
78144;BME280;67394;52.522;13.622;2023-03-19T08:59:41;101002.72;;;11.01;70.72
78144;BME280;67394;52.522;13.622;2023-03-19T09:02:09;101002.69;;;10.90;71.69
78144;BME280;67394;52.522;13.622;2023-03-19T09:04:40;101010.31;;;10.81;72.73
78144;BME280;67394;52.522;13.622;2023-03-19T09:07:06;101009.44;;;10.69;73.62
78144;BME280;67394;52.522;13.622;2023-03-19T09:09:32;101016.22;;;10.59;74.37
78144;BME280;67394;52.522;13.622;2023-03-19T09:11:59;101015.34;;;10.60;74.09
78144;BME280;67394;52.522;13.622;2023-03-19T09:14:25;101015.22;;;10.34;77.00
78144;BME280;67394;52.522;13.622;2023-03-19T09:16:51;101017.75;;;10.26;78.36
78144;BME280;67394;52.522;13.622;2023-03-19T09:19:18;101017.56;;;10.05;79.10
78144;BME280;67394;52.522;13.622;2023-03-19T09:21:44;101009.81;;;10.01;81.30
78144;BME280;67394;52.522;13.622;2023-03-19T09:24:11;101002.06;;;9.90;82.15
78144;BME280;67394;52.522;13.622;2023-03-19T09:26:37;100999.44;;;9.81;82.74
78144;BME280;67394;52.522;13.622;2023-03-19T09:29:03;100991.69;;;9.73;83.65
78144;BME280;67394;52.522;13.622;2023-03-19T09:31:30;100968.56;;;9.64;83.78
78144;BME280;67394;52.522;13.622;2023-03-19T09:33:57;100960.00;;;9.61;85.54
78144;BME280;67394;52.522;13.622;2023-03-19T09:36:23;100942.94;;;9.58;85.53
78144;BME280;67394;52.522;13.622;2023-03-19T09:38:50;100917.31;;;9.52;85.19
78144;BME280;67394;52.522;13.622;2023-03-19T09:41:24;100903.66;;;9.54;84.92
78144;BME280;67394;52.522;13.622;2023-03-19T09:46:42;100901.69;;;9.23;87.15
78144;BME280;67394;52.522;13.622;2023-03-19T09:49:15;100904.22;;;9.20;86.84
78144;BME280;67394;52.522;13.622;2023-03-19T09:54:36;100929.78;;;9.17;86.76
78144;BME280;67394;52.522;13.622;2023-03-19T09:57:07;100927.16;;;9.14;87.40
78144;BME280;67394;52.522;13.622;2023-03-19T09:59:34;100911.81;;;9.11;87.88
78144;BME280;67394;52.522;13.622;2023-03-19T10:02:37;100919.50;;;9.11;88.23
78144;BME280;67394;52.522;13.622;2023-03-19T10:05:34;100902.50;;;9.17;88.41
78144;BME280;67394;52.522;13.622;2023-03-19T10:08:35;100881.97;;;9.13;88.32
78144;BME280;67394;52.522;13.622;2023-03-19T10:11:18;100875.94;;;9.00;90.17
78144;BME280;67394;52.522;13.622;2023-03-19T10:13:58;100881.03;;;9.03;89.55
78144;BME280;67394;52.522;13.622;2023-03-19T10:16:28;100872.53;;;9.04;89.96
78144;BME280;67394;52.522;13.622;2023-03-19T10:19:01;100868.34;;;9.11;90.39
78144;BME280;67394;52.522;13.622;2023-03-19T10:21:51;100880.25;;;9.07;89.86
78144;BME280;67394;52.522;13.622;2023-03-19T10:24:31;100899.13;;;9.20;89.79
78144;BME280;67394;52.522;13.622;2023-03-19T10:27:00;100912.81;;;9.28;89.09
78144;BME280;67394;52.522;13.622;2023-03-19T10:29:30;100907.72;;;9.33;90.34
78144;BME280;67394;52.522;13.622;2023-03-19T10:34:51;100908.69;;;9.45;89.41
78144;BME280;67394;52.522;13.622;2023-03-19T10:37:19;100894.19;;;9.46;89.21
78144;BME280;67394;52.522;13.622;2023-03-19T10:39:48;100897.59;;;9.43;89.15
78144;BME280;67394;52.522;13.622;2023-03-19T10:45:32;100904.56;;;9.60;89.23
78144;BME280;67394;52.522;13.622;2023-03-19T10:48:01;100918.22;;;9.65;88.02
78144;BME280;67394;52.522;13.622;2023-03-19T10:55:46;100885.84;;;9.70;89.87
78144;BME280;67394;52.522;13.622;2023-03-19T10:58:18;100896.16;;;9.79;88.54
78144;BME280;67394;52.522;13.622;2023-03-19T11:00:46;100888.53;;;9.88;89.71
78144;BME280;67394;52.522;13.622;2023-03-19T11:06:15;100893.75;;;10.08;89.00
78144;BME280;67394;52.522;13.622;2023-03-19T11:08:42;100892.94;;;10.10;88.73
78144;BME280;67394;52.522;13.622;2023-03-19T11:11:23;100887.06;;;10.25;87.51
78144;BME280;67394;52.522;13.622;2023-03-19T11:13:49;100882.84;;;10.35;88.16
78144;BME280;67394;52.522;13.622;2023-03-19T11:16:16;100892.31;;;10.55;87.23
78144;BME280;67394;52.522;13.622;2023-03-19T11:18:46;100888.06;;;10.71;87.54
78144;BME280;67394;52.522;13.622;2023-03-19T11:21:25;100888.94;;;10.82;87.59
78144;BME280;67394;52.522;13.622;2023-03-19T11:23:59;100883.84;;;10.91;86.50
78144;BME280;67394;52.522;13.622;2023-03-19T11:26:26;100886.44;;;11.00;87.57
78144;BME280;67394;52.522;13.622;2023-03-19T11:28:53;100886.44;;;11.13;88.76
78144;BME280;67394;52.522;13.622;2023-03-19T11:31:33;100893.31;;;11.20;86.41
78144;BME280;67394;52.522;13.622;2023-03-19T11:37:05;100877.88;;;11.56;85.85
78144;BME280;67394;52.522;13.622;2023-03-19T11:42:42;100870.97;;;12.10;83.70
78144;BME280;67394;52.522;13.622;2023-03-19T11:50:40;100870.84;;;12.42;84.39
78144;BME280;67394;52.522;13.622;2023-03-19T11:53:23;100872.53;;;12.48;83.27
78144;BME280;67394;52.522;13.622;2023-03-19T12:01:53;100873.25;;;12.72;85.51
78144;BME280;67394;52.522;13.622;2023-03-19T12:07:21;100874.03;;;12.85;81.88
78144;BME280;67394;52.522;13.622;2023-03-19T12:12:40;100878.25;;;12.95;83.73
78144;BME280;67394;52.522;13.622;2023-03-19T12:15:17;100877.38;;;13.02;84.22
78144;BME280;67394;52.522;13.622;2023-03-19T12:18:19;100874.81;;;13.01;81.57
78144;BME280;67394;52.522;13.622;2023-03-19T12:21:10;100875.56;;;13.18;83.58
78144;BME280;67394;52.522;13.622;2023-03-19T12:29:19;100873.69;;;13.37;80.28
78144;BME280;67394;52.522;13.622;2023-03-19T12:32:10;100878.06;;;13.26;80.12
78144;BME280;67394;52.522;13.622;2023-03-19T12:34:57;100879.75;;;13.33;81.26
78144;BME280;67394;52.522;13.622;2023-03-19T12:37:30;100871.09;;;13.38;82.40
78144;BME280;67394;52.522;13.622;2023-03-19T12:42:40;100873.56;;;13.52;82.29
78144;BME280;67394;52.522;13.622;2023-03-19T12:45:30;100870.06;;;13.56;80.72
78144;BME280;67394;52.522;13.622;2023-03-19T12:48:20;100869.22;;;13.57;81.15
78144;BME280;67394;52.522;13.622;2023-03-19T12:50:50;100867.50;;;13.57;81.43
78144;BME280;67394;52.522;13.622;2023-03-19T12:53:34;100871.72;;;13.65;81.06
78144;BME280;67394;52.522;13.622;2023-03-19T12:56:07;100871.69;;;13.69;79.97
78144;BME280;67394;52.522;13.622;2023-03-19T12:58:52;100873.28;;;13.79;79.75
78144;BME280;67394;52.522;13.622;2023-03-19T13:01:35;100859.44;;;13.89;79.88
78144;BME280;67394;52.522;13.622;2023-03-19T13:04:09;100859.31;;;14.02;80.17
78144;BME280;67394;52.522;13.622;2023-03-19T13:06:42;100858.34;;;14.10;79.44
78144;BME280;67394;52.522;13.622;2023-03-19T13:09:24;100857.34;;;14.22;78.86
78144;BME280;67394;52.522;13.622;2023-03-19T13:12:03;100854.78;;;14.22;76.52
78144;BME280;67394;52.522;13.622;2023-03-19T13:14:37;100862.38;;;14.31;76.17
78144;BME280;67394;52.522;13.622;2023-03-19T13:17:22;100861.38;;;14.46;78.31
78144;BME280;67394;52.522;13.622;2023-03-19T13:19:51;100860.34;;;14.59;75.18
78144;BME280;67394;52.522;13.622;2023-03-19T13:22:23;100865.38;;;14.68;75.52
78144;BME280;67394;52.522;13.622;2023-03-19T13:24:51;100867.00;;;14.74;76.05
78144;BME280;67394;52.522;13.622;2023-03-19T13:27:39;100865.25;;;14.79;73.93
78144;BME280;67394;52.522;13.622;2023-03-19T13:30:15;100868.59;;;14.84;72.64
78144;BME280;67394;52.522;13.622;2023-03-19T13:33:03;100864.22;;;14.90;71.77
78144;BME280;67394;52.522;13.622;2023-03-19T13:38:26;100865.78;;;14.99;74.03
78144;BME280;67394;52.522;13.622;2023-03-19T13:40:54;100861.47;;;15.01;72.09
78144;BME280;67394;52.522;13.622;2023-03-19T13:43:39;100863.19;;;15.02;72.11
78144;BME280;67394;52.522;13.622;2023-03-19T13:53:39;100850.31;;;14.99;72.35
78144;BME280;67394;52.522;13.622;2023-03-19T13:56:11;100851.88;;;15.08;73.04
78144;BME280;67394;52.522;13.622;2023-03-19T14:01:43;100850.94;;;15.13;72.56
78144;BME280;67394;52.522;13.622;2023-03-19T14:09:41;100847.34;;;15.23;72.42
78144;BME280;67394;52.522;13.622;2023-03-19T14:12:21;100840.47;;;15.22;71.04
78144;BME280;67394;52.522;13.622;2023-03-19T14:17:21;100836.16;;;15.23;71.62